Home > Products > Valid Products > MTR

000
SAUS43 KABR 270157
MTR8D3
METAR K8D3 270156Z AUTO 01011KT M03/M09 A3027 RMK AO1 SLP274
T10331094





000
SAUS43 KABR 270057
MTR8D3
METAR K8D3 270056Z AUTO 02012KT M02/M09 A3024 RMK AO1 SLP264
T10171094





000
SAUS43 KABR 270057
MTR8D3
METAR K8D3 270056Z AUTO 02012KT M02/M09 A3024 RMK AO1 SLP264
T10171094





000
SAUS43 KABR 262357
MTR8D3
METAR K8D3 262356Z AUTO 02016KT 00/M11 A3022 RMK AO1 SLP258
T00001106 10022 20000 53008





000
SAUS43 KABR 262357
MTR8D3
METAR K8D3 262356Z AUTO 02016KT 00/M11 A3022 RMK AO1 SLP258
T00001106 10022 20000 53008





000
SAUS43 KABR 262257
MTR8D3
METAR K8D3 262256Z AUTO 01017G25KT 01/M09 A3021 RMK AO1 PK WND
03027/2201 SLP253 T00111094





000
SAUS43 KABR 262257
MTR8D3
METAR K8D3 262256Z AUTO 01017G25KT 01/M09 A3021 RMK AO1 PK WND
03027/2201 SLP253 T00111094





000
SAUS43 KABR 262157
MTR8D3
METAR K8D3 262156Z AUTO 02017KT 02/M09 A3019 RMK AO1 SLP245
T00171089





000
SAUS43 KABR 262057
MTR8D3
METAR K8D3 262056Z AUTO 02018G24KT 01/M08 A3020 RMK AO1 SLP246
T00111083 55005





000
SAUS43 KABR 262057
MTR8D3
METAR K8D3 262056Z AUTO 02018G24KT 01/M08 A3020 RMK AO1 SLP246
T00111083 55005





000
SAUS43 KABR 261957
MTR8D3
METAR K8D3 261956Z AUTO 02015G24KT 01/M07 A3019 RMK AO1 SLP244
T00111072





000
SAUS43 KABR 261858
MTR8D3
METAR K8D3 261856Z AUTO 01017KT 00/M08 A3020 RMK AO1 SLP248
T00001078





000
SAUS43 KABR 261858
MTR8D3
METAR K8D3 261856Z AUTO 01017KT 00/M08 A3020 RMK AO1 SLP248
T00001078





000
SAUS43 KABR 261758
MTR8D3
METAR K8D3 261756Z AUTO 36015KT 00/M07 A3021 RMK AO1 SLP251
T00001067 10006 21044 50001





000
SAUS43 KABR 261758
MTR8D3
METAR K8D3 261756Z AUTO 36015KT 00/M07 A3021 RMK AO1 SLP251
T00001067 10006 21044 50001





000
SAUS43 KABR 261657
MTR8D3
METAR K8D3 261656Z AUTO 36016KT M01/M06 A3022 RMK AO1 SLP254
T10111061





000
SAUS43 KABR 261657
MTR8D3
METAR K8D3 261656Z AUTO 36016KT M01/M06 A3022 RMK AO1 SLP254
T10111061





000
SAUS43 KABR 261557
MTR8D3
METAR K8D3 261556Z AUTO 03015KT M02/M06 A3022 RMK AO1 SLP252
T10221056





000
SAUS43 KABR 261458
MTR8D3
METAR K8D3 261456Z AUTO 04010KT M02/M04 A3021 RMK AO1 SLP250
T10221044 51009





000
SAUS43 KABR 261357
MTR8D3
METAR K8D3 261356Z AUTO 01008KT M03/M04 A3021 RMK AO1 SLP250
T10281044





000
SAUS43 KABR 261257
MTR8D3
METAR K8D3 261256Z AUTO 35008KT M03/M05 A3019 RMK AO1 SLP242
T10331050





000
SAUS43 KABR 261257
MTR8D3
METAR K8D3 261256Z AUTO 35008KT M03/M05 A3019 RMK AO1 SLP242
T10331050





000
SAUS43 KABR 261157
MTR8D3
METAR K8D3 261156Z AUTO 33008KT M03/M05 A3018 RMK AO1 SLP240
T10331050 10006 21044 53009





000
SAUS43 KABR 261157
MTR8D3
METAR K8D3 261156Z AUTO 33008KT M03/M05 A3018 RMK AO1 SLP240
T10331050 10006 21044 53009





000
SAUS43 KABR 261057
MTR8D3
METAR K8D3 261056Z AUTO 34007KT M04/M05 A3016 RMK AO1 SLP234
T10441050 $





000
SAUS43 KABR 261057
MTR8D3
METAR K8D3 261056Z AUTO 34007KT M04/M05 A3016 RMK AO1 SLP234
T10441050 $





000
SAUS43 KABR 260957
MTR8D3
METAR K8D3 260956Z AUTO 02005KT M03/M04 A3015 RMK AO1 SLP229
T10331039 $





000
SAUS43 KABR 260857
MTR8D3
METAR K8D3 260856Z AUTO 36008KT M02/M04 A3015 RMK AO1 SLP229
T10171039 57002 $





000
SAUS43 KABR 260757
MTR8D3
METAR K8D3 260756Z AUTO 33010KT 00/M03 A3016 RMK AO1 SLP230
T00001028 $





000
SAUS43 KABR 260657
MTR8D3
METAR K8D3 260656Z AUTO 33008KT 00/M02 A3016 RMK AO1 SLP230
T00001022 $





000
SAUS43 KABR 260657
MTR8D3
METAR K8D3 260656Z AUTO 33008KT 00/M02 A3016 RMK AO1 SLP230
T00001022 $





000
SAUS43 KABR 260557
MTR8D3
METAR K8D3 260556Z AUTO 35007KT M01/M03 A3016 RMK AO1 SLP232
T10061028 10033 21006 400561006 52002 $





000
SAUS43 KABR 260557
MTR8D3
METAR K8D3 260556Z AUTO 35007KT M01/M03 A3016 RMK AO1 SLP232
T10061028 10033 21006 400561006 52002 $





000
SAUS43 KABR 260457
MTR8D3
METAR K8D3 260456Z AUTO 35008KT 01/M03 A3016 RMK AO1 SLP231
T00111033 $





000
SAUS43 KABR 260357
MTR8D3
METAR K8D3 260356Z AUTO 34010KT 02/M04 A3015 RMK AO1 SLP229
T00171039 $





000
SAUS43 KABR 260257
MTR8D3
METAR K8D3 260256Z AUTO 33010KT 02/M04 A3015 RMK AO1 SLP229
T00171039 51014 $





000
SAUS43 KABR 260257
MTR8D3
METAR K8D3 260256Z AUTO 33010KT 02/M04 A3015 RMK AO1 SLP229
T00171039 51014 $





000
SAUS43 KABR 260157
MTR8D3
METAR K8D3 260156Z AUTO 33012KT 02/M04 A3015 RMK AO1 PK WND
34030/0108 SLP226 T00171044





000
SAUS43 KABR 260057
MTR8D3
METAR K8D3 260056Z AUTO 34020G29KT 03/M04 A3013 RMK AO1 PK WND
34029/0049 SLP219 T00281044





000
SAUS43 KABR 252357
MTR8D3
METAR K8D3 252356Z AUTO 35017G23KT 03/M04 A3011 RMK AO1 PK WND
34030/2305 SLP212 T00331044 10056 20011 53017





000
SAUS43 KABR 252357
MTR8D3
METAR K8D3 252356Z AUTO 35017G23KT 03/M04 A3011 RMK AO1 PK WND
34030/2305 SLP212 T00331044 10056 20011 53017





000
SAUS43 KABR 252258
MTR8D3
METAR K8D3 252256Z AUTO 35022G30KT 04/M04 A3009 RMK AO1 PK WND
34036/2201 SLP205 T00391044





000
SAUS43 KABR 252258
MTR8D3
METAR K8D3 252256Z AUTO 35022G30KT 04/M04 A3009 RMK AO1 PK WND
34036/2201 SLP205 T00391044





000
SAUS43 KABR 252157
MTR8D3
METAR K8D3 252156Z AUTO 34030G36KT 04/M04 A3007 RMK AO1 PK WND
33036/2155 SLP196 T00441044





000
SAUS43 KABR 252057
MTR8D3
METAR K8D3 252056Z AUTO 33026G33KT 04/M03 A3006 RMK AO1 PK WND
34033/2018 SLP194 T00391033 51007





000
SAUS43 KABR 251957
MTR8D3
METAR K8D3 251956Z AUTO 34027G31KT 02/M03 A3006 RMK AO1 PK WND
32033/1910 SLP195 T00171033





000
SAUS43 KABR 251857
MTR8D3
METAR K8D3 251856Z AUTO 34028G35KT 02/M03 A3004 RMK AO1 PK WND
33037/1804 SLP190 T00171033





000
SAUS43 KABR 251857
MTR8D3
METAR K8D3 251856Z AUTO 34028G35KT 02/M03 A3004 RMK AO1 PK WND
33037/1804 SLP190 T00171033





000
SAUS43 KABR 251759 COR
MTR8D3
METAR K8D3 251756Z AUTO 33027G34KT 01/M04 A3004 RMK AO1 PK WND
33040/1730 SLP187 T00111039 10011 20000 51037





000
SAUS43 KABR 251759 COR
MTR8D3
METAR K8D3 251756Z AUTO 33027G34KT 01/M04 A3004 RMK AO1 PK WND
33040/1730 SLP187 T00111039 10011 20000 51037





000
SAUS43 KABR 251758 COR
MTR8D3
METAR K8D3 251756Z AUTO 33027G34KT 01/M04 A3004 RMK AO1 PK WND
33040/1730 SLP187 T00111039 10011 20000 51037





000
SAUS43 KABR 251758 COR
MTR8D3
METAR K8D3 251756Z AUTO 33027G34KT 01/M04 A3004 RMK AO1 PK WND
33040/1730 SLP187 T00111039 10011 20000 51037





000
SAUS43 KABR 251657
MTR8D3
METAR K8D3 251656Z AUTO 33030G38KT 01/M04 A3000 RMK AO1 PK WND
33043/1616 SLP177 T00061039





000
SAUS43 KABR 251657
MTR8D3
METAR K8D3 251656Z AUTO 33030G38KT 01/M04 A3000 RMK AO1 PK WND
33043/1616 SLP177 T00061039





000
SAUS43 KABR 251557
MTR8D3
METAR K8D3 251556Z AUTO 33027G39KT 01/M04 A2996 RMK AO1 PK WND
32045/1510 SLP163 T00061044





000
SAUS43 KABR 251557
MTR8D3
METAR K8D3 251556Z AUTO 33027G39KT 01/M04 A2996 RMK AO1 PK WND
32045/1510 SLP163 T00061044





000
SAUS43 KABR 251457
MTR8D3
METAR K8D3 251456Z AUTO 32031G43KT 00/M04 A2992 RMK AO1 PK WND
33043/1454 SLP150 T00001039 51031





000
SAUS43 KABR 251357
MTR8D3
METAR K8D3 251356Z AUTO 32029G36KT 01/M03 A2990 RMK AO1 PK WND
33036/1354 SLP143 T00061028





000
SAUS43 KABR 251357
MTR8D3
METAR K8D3 251356Z AUTO 32029G36KT 01/M03 A2990 RMK AO1 PK WND
33036/1354 SLP143 T00061028





000
SAUS43 KABR 251257
MTR8D3
METAR K8D3 251256Z AUTO 32023G29KT 01/M03 A2988 RMK AO1 PK WND
31036/1203 SLP134 T00061028





000
SAUS43 KABR 251257
MTR8D3
METAR K8D3 251256Z AUTO 32023G29KT 01/M03 A2988 RMK AO1 PK WND
31036/1203 SLP134 T00061028





000
SAUS43 KABR 251157
MTR8D3
METAR K8D3 251156Z AUTO 32021G30KT 01/M02 A2983 RMK AO1 PK WND
31031/1114 SLP117 7//// T00061022 10028 20006 53023





000
SAUS43 KABR 251157
MTR8D3
METAR K8D3 251156Z AUTO 32021G30KT 01/M02 A2983 RMK AO1 PK WND
31031/1114 SLP117 7//// T00061022 10028 20006 53023





000
SAUS43 KABR 251057
MTR8D3
METAR K8D3 251056Z AUTO 31021G31KT 01/M02 A2979 RMK AO1 PK WND
31031/1049 SLP104 T00111022 $





000
SAUS43 KABR 251057
MTR8D3
METAR K8D3 251056Z AUTO 31021G31KT 01/M02 A2979 RMK AO1 PK WND
31031/1049 SLP104 T00111022 $





000
SAUS43 KABR 250957
MTR8D3
METAR K8D3 250956Z AUTO 30021G28KT 01/M02 A2976 RMK AO1 PK WND
29029/0941 SLPNO T00111017 $





000
SAUS43 KABR 250857
MTR8D3
METAR K8D3 250856Z AUTO 29019G26KT 01/M01 A2976 RMK AO1 PK WND
29030/0811 SLP093 T00061011 56001 $





000
SAUS43 KABR 250757
MTR8D3
METAR K8D3 250756Z AUTO 29017G24KT 02/M02 A2976 RMK AO1 PK WND
29028/0735 SLP093 T00171022 $





000
SAUS43 KABR 250657
MTR8D3
METAR K8D3 250656Z AUTO 29014KT 02/M01 A2976 RMK AO1 SLP094
T00171011 $





000
SAUS43 KABR 250657
MTR8D3
METAR K8D3 250656Z AUTO 29014KT 02/M01 A2976 RMK AO1 SLP094
T00171011 $





000
SAUS43 KABR 250557
MTR8D3
METAR K8D3 250556Z AUTO 27012KT 03/01 A2976 RMK AO1 SLP093 T00280011
10028 20011 400281006 56012 $





000
SAUS43 KABR 250557
MTR8D3
METAR K8D3 250556Z AUTO 27012KT 03/01 A2976 RMK AO1 SLP093 T00280011
10028 20011 400281006 56012 $





000
SAUS43 KABR 250457
MTR8D3
METAR K8D3 250456Z AUTO 24012KT 02/02 A2977 RMK AO1 SLP098 T00220017
$





000
SAUS43 KABR 250457
MTR8D3
METAR K8D3 250456Z AUTO 24012KT 02/02 A2977 RMK AO1 SLP098 T00220017
$





000
SAUS43 KABR 250358
MTR8D3
METAR K8D3 250356Z AUTO 23015KT 02/01 A2977 RMK AO1 SLP100 T00170011
$





000
SAUS43 KABR 250258
MTR8D3
METAR K8D3 250256Z AUTO 22010KT 02/01 A2980 RMK AO1 SLP108 T00170011
53008 $





000
SAUS43 KABR 250258
MTR8D3
METAR K8D3 250256Z AUTO 22010KT 02/01 A2980 RMK AO1 SLP108 T00170011
53008 $





000
SAUS43 KABR 250157
MTR8D3
METAR K8D3 250156Z AUTO 19014KT 01/01 A2978 RMK AO1 SLP103 T00110011
$





000
SAUS43 KABR 250157
MTR8D3
METAR K8D3 250156Z AUTO 19014KT 01/01 A2978 RMK AO1 SLP103 T00110011
$





000
SAUS43 KABR 250057
MTR8D3
METAR K8D3 250056Z AUTO 17014KT 02/01 A2978 RMK AO1 SLP101 T00170011
$





000
SAUS43 KABR 250057
MTR8D3
METAR K8D3 250056Z AUTO 17014KT 02/01 A2978 RMK AO1 SLP101 T00170011
$





000
SAUS43 KABR 242357
MTR8D3
METAR K8D3 242356Z AUTO 17015KT 02/01 A2977 RMK AO1 SLP099 6////
T00170011 10017 20000 $





000
SAUS43 KABR 242357
MTR8D3
METAR K8D3 242356Z AUTO 17015KT 02/01 A2977 RMK AO1 SLP099 6////
T00170011 10017 20000 $





000
SAUS43 KABR 242257
MTR8D3
METAR K8D3 242256Z AUTO 17018KT 02/01 A2978 RMK AO1 PK WND
17026/2201 SLP102 T00170011 $





000
SAUS43 KABR 242257
MTR8D3
METAR K8D3 242256Z AUTO 17018KT 02/01 A2978 RMK AO1 PK WND
17026/2201 SLP102 T00170011 $





000
SAUS43 KABR 242057
MTR8D3
METAR K8D3 242056Z AUTO 17017KT 02/01 A2981 RMK AO1 SLP113 60007
T00170011 58023





000
SAUS43 KABR 241957
MTR8D3
METAR K8D3 241956Z AUTO 17019KT 01/01 A2983 RMK AO1 SLP120 P0005
T00110006





000
SAUS43 KABR 241857
MTR8D3
METAR K8D3 241856Z AUTO 17017KT 01/00 A2987 RMK AO1 SLP132 P0002
T00110000





000
SAUS43 KABR 241857
MTR8D3
METAR K8D3 241856Z AUTO 17017KT 01/00 A2987 RMK AO1 SLP132 P0002
T00110000





000
SAUS43 KABR 241757
MTR8D3
METAR K8D3 241756Z AUTO 17018KT 01/M01 A2988 RMK AO1 PK WND
17028/1708 SLP138 T00061006 10006 21006 58022





000
SAUS43 KABR 241757
MTR8D3
METAR K8D3 241756Z AUTO 17018KT 01/M01 A2988 RMK AO1 PK WND
17028/1708 SLP138 T00061006 10006 21006 58022





000
SAUS43 KABR 241657
MTR8D3
METAR K8D3 241656Z AUTO 17024G27KT 00/M01 A2990 RMK AO1 PK WND
17030/1642 SLP145 T00001011





000
SAUS43 KABR 241606
MTR8D3
METAR K8D3 241556Z AUTO 17024G30KT 00/M01 A2994 RMK AO1 PK WND
18030/1542 SLP157 T00001011





000
SAUS43 KABR 241606
MTR8D3
METAR K8D3 241556Z AUTO 17024G30KT 00/M01 A2994 RMK AO1 PK WND
18030/1542 SLP157 T00001011





000
SAUS43 KABR 241510
MTR8D3
METAR K8D3 241456Z AUTO 17022KT M01/M01 A2995 RMK AO1 PK WND
17028/1431 SLP162 T10061011 53002





000
SAUS43 KABR 241357
MTR8D3
METAR K8D3 241356Z AUTO 16020G26KT M01/M01 A2994 RMK AO1 PK WND
17026/1353 SLP159 T10061011





000
SAUS43 KABR 241257
MTR8D3
METAR K8D3 241256Z AUTO 17019G25KT M01/M01 A2995 RMK AO1 PK WND
17027/1221 SLP160 T10061011





000
SAUS43 KABR 241257
MTR8D3
METAR K8D3 241256Z AUTO 17019G25KT M01/M01 A2995 RMK AO1 PK WND
17027/1221 SLP160 T10061011





000
SAUS43 KABR 241157
MTR8D3
METAR K8D3 241156Z AUTO 17019KT 00/M01 A2995 RMK AO1 SLP159
T00001011 10006 20000 56015





000
SAUS43 KABR 241157
MTR8D3
METAR K8D3 241156Z AUTO 17019KT 00/M01 A2995 RMK AO1 SLP159
T00001011 10006 20000 56015





000
SAUS43 KABR 241058
MTR8D3
METAR K8D3 241056Z AUTO 17017KT 00/M01 A2997 RMK AO1 SLP166
T00001006





000
SAUS43 KABR 241058
MTR8D3
METAR K8D3 241056Z AUTO 17017KT 00/M01 A2997 RMK AO1 SLP166
T00001006





000
SAUS43 KABR 240959
MTR8D3
METAR K8D3 240956Z AUTO 17018KT 00/M01 A2996 RMK AO1 SLP165
T00001011





000
SAUS43 KABR 240858
MTR8D3
METAR K8D3 240856Z AUTO 18017KT 00/M01 A2999 RMK AO1 SLP175
T00001006 56016





000
SAUS43 KABR 240858
MTR8D3
METAR K8D3 240856Z AUTO 18017KT 00/M01 A2999 RMK AO1 SLP175
T00001006 56016





000
SAUS43 KABR 240806
MTR8D3
METAR K8D3 240756Z AUTO 17018KT 00/M01 A3001 RMK AO1 SLP180
T00001006





000
SAUS43 KABR 240709
MTR8D3
METAR K8D3 240656Z AUTO 17019KT 01/M01 A3002 RMK AO1 SLP184
T00061006





000
SAUS43 KABR 240709
MTR8D3
METAR K8D3 240656Z AUTO 17019KT 01/M01 A3002 RMK AO1 SLP184
T00061006





000
SAUS43 KABR 240558
MTR8D3
METAR K8D3 240556Z AUTO 17018KT 01/M01 A3004 RMK AO1 SLP193
T00061006 10006 20000 400111033 57009





000
SAUS43 KABR 240558
MTR8D3
METAR K8D3 240556Z AUTO 17018KT 01/M01 A3004 RMK AO1 SLP193
T00061006 10006 20000 400111033 57009





000
SAUS43 KABR 240457
MTR8D3
METAR K8D3 240456Z AUTO 17016KT 01/M01 A3005 RMK AO1 SLP197
T00061006





000
SAUS43 KABR 240457
MTR8D3
METAR K8D3 240456Z AUTO 17016KT 01/M01 A3005 RMK AO1 SLP197
T00061006





000
SAUS43 KABR 240358
MTR8D3
METAR K8D3 240356Z AUTO 17015KT 00/M01 A3006 RMK AO1 SLP201
T00001006





000
SAUS43 KABR 240257
MTR8D3
METAR K8D3 240256Z AUTO 17016KT 00/M01 A3007 RMK AO1 SLP205
T00001006 50001





000
SAUS43 KABR 240257
MTR8D3
METAR K8D3 240256Z AUTO 17016KT 00/M01 A3007 RMK AO1 SLP205
T00001006 50001





    US Dept of Commerce
    National Oceanic and Atmospheric Administration
    National Weather Service
    1325 East West Highway
    Silver Spring, MD 20910
    Page Author: NWS Internet Services Team
Disclaimer
Information Quality
Credits
Glossary
Privacy Policy
Freedom of Information Act (FOIA)
About Us
Career Opportunities